createdAt,value
2022-10-11T00:00:02.214Z,10.82
2022-10-11T00:03:04.734Z,10.89
2022-10-11T00:06:07.898Z,11.20
2022-10-11T00:09:11.681Z,10.97
2022-10-11T00:12:13.808Z,11.18
2022-10-11T00:15:18.098Z,10.78
2022-10-11T00:18:20.618Z,10.53
2022-10-11T00:21:22.855Z,10.60
2022-10-11T00:24:25.048Z,10.61
2022-10-11T00:27:27.397Z,10.70
2022-10-11T00:30:29.619Z,10.59
2022-10-11T00:33:31.773Z,10.44
2022-10-11T00:36:33.911Z,10.49
2022-10-11T00:39:36.208Z,10.33
2022-10-11T00:42:38.860Z,10.27
2022-10-11T00:45:40.962Z,10.29
2022-10-11T00:48:46.683Z,10.49
2022-10-11T00:51:57.616Z,10.40
2022-10-11T00:55:06.472Z,10.41
2022-10-11T00:58:09.322Z,10.47
2022-10-11T01:01:11.754Z,10.53
2022-10-11T01:04:14.288Z,10.60
2022-10-11T01:07:17.716Z,10.61
2022-10-11T01:10:19.948Z,10.48
2022-10-11T01:13:31.325Z,10.27
2022-10-11T01:16:36.145Z,10.18
2022-10-11T01:20:03.461Z,10.20
2022-10-11T01:23:26.774Z,10.14
2022-10-11T01:26:31.887Z,10.28
2022-10-11T01:30:02.240Z,10.40
2022-10-11T01:33:17.448Z,10.46
2022-10-11T01:36:31.959Z,10.29
2022-10-11T01:39:56.051Z,10.20
2022-10-11T01:42:59.284Z,10.09
2022-10-11T01:46:03.137Z,10.11
2022-10-11T01:49:05.759Z,10.15
2022-10-11T01:52:08.082Z,10.21
2022-10-11T01:55:21.545Z,10.21
2022-10-11T01:58:58.838Z,10.30
2022-10-11T02:02:22.338Z,10.46
2022-10-11T02:05:27.159Z,10.60
2022-10-11T02:08:44.331Z,10.46
2022-10-11T02:11:46.528Z,10.14
2022-10-11T02:14:49.512Z,9.94
2022-10-11T02:17:55.518Z,9.76
2022-10-11T02:21:00.771Z,9.74
2022-10-11T02:24:11.059Z,9.79
2022-10-11T02:27:13.855Z,9.88
2022-10-11T02:30:16.337Z,9.57
2022-10-11T02:33:22.082Z,9.42
2022-10-11T02:36:36.660Z,9.47
2022-10-11T02:39:46.550Z,9.13
2022-10-11T02:42:59.293Z,9.09
2022-10-11T02:46:02.843Z,9.40
2022-10-11T02:49:05.469Z,9.80
2022-10-11T02:52:07.989Z,9.48
2022-10-11T02:55:10.933Z,9.12
2022-10-11T02:58:13.057Z,9.19
2022-10-11T03:01:15.439Z,9.23
2022-10-11T03:04:17.656Z,9.29
2022-10-11T03:07:19.853Z,9.42
2022-10-11T03:10:22.009Z,9.75
2022-10-11T03:13:24.389Z,9.90
2022-10-11T03:16:26.694Z,10.04
2022-10-11T03:19:29.018Z,10.16
2022-10-11T03:22:31.196Z,10.22
2022-10-11T03:25:33.369Z,10.04
2022-10-11T03:28:35.589Z,9.78
2022-10-11T03:31:37.759Z,9.71
2022-10-11T03:34:39.912Z,9.76
2022-10-11T03:37:42.094Z,9.81
2022-10-11T03:40:44.363Z,9.91
2022-10-11T03:43:46.508Z,10.06
2022-10-11T03:46:48.672Z,10.16
2022-10-11T03:49:50.805Z,10.14
2022-10-11T03:52:52.957Z,10.05
2022-10-11T03:55:55.840Z,10.10
2022-10-11T03:58:58.002Z,10.10
2022-10-11T04:02:00.245Z,10.07
2022-10-11T04:05:03.255Z,10.05
2022-10-11T04:08:09.812Z,10.07
2022-10-11T04:11:14.261Z,10.06
2022-10-11T04:14:17.062Z,10.01
2022-10-11T04:17:19.210Z,10.00
2022-10-11T04:20:21.410Z,10.14
2022-10-11T04:23:23.584Z,10.20
2022-10-11T04:26:25.967Z,10.20
2022-10-11T04:29:32.328Z,10.16
2022-10-11T04:32:35.035Z,10.14
2022-10-11T04:35:37.282Z,10.19
2022-10-11T04:38:39.430Z,10.40
2022-10-11T04:41:41.607Z,10.72
2022-10-11T04:44:43.752Z,10.64
2022-10-11T04:47:46.095Z,10.58
2022-10-11T04:50:48.301Z,10.40
2022-10-11T04:53:50.491Z,10.42
2022-10-11T04:56:52.659Z,10.48
2022-10-11T04:59:54.784Z,10.48
2022-10-11T05:02:57.392Z,10.30
2022-10-11T05:06:04.552Z,10.18
2022-10-11T05:09:07.765Z,10.09
2022-10-11T05:12:10.215Z,10.12
2022-10-11T05:15:12.379Z,10.32
2022-10-11T05:18:14.722Z,10.51
2022-10-11T05:21:18.070Z,10.66
2022-10-11T05:24:20.218Z,10.73
2022-10-11T05:27:22.376Z,10.57
2022-10-11T05:30:24.947Z,10.61
2022-10-11T05:33:27.352Z,10.62
2022-10-11T05:36:29.680Z,10.62
2022-10-11T05:39:32.353Z,10.74
2022-10-11T05:42:34.556Z,10.94
2022-10-11T05:45:40.515Z,11.07
2022-10-11T05:48:42.709Z,10.97
2022-10-11T05:51:44.912Z,10.83
2022-10-11T05:54:48.344Z,10.82
2022-10-11T05:57:54.922Z,10.66
2022-10-11T06:00:57.301Z,10.63
2022-10-11T06:03:59.596Z,10.65
2022-10-11T06:07:01.698Z,10.74
2022-10-11T06:10:04.567Z,10.73
2022-10-11T06:13:07.381Z,10.74
2022-10-11T06:16:09.834Z,10.96
2022-10-11T06:19:11.992Z,11.15
2022-10-11T06:22:14.178Z,11.51
2022-10-11T06:25:16.454Z,11.61
2022-10-11T06:28:18.663Z,11.60
2022-10-11T06:31:20.897Z,11.65
2022-10-11T06:34:23.271Z,11.62
2022-10-11T06:37:25.528Z,11.56
2022-10-11T06:40:27.787Z,11.71
2022-10-11T06:43:30.014Z,11.80
2022-10-11T06:46:35.150Z,12.01
2022-10-11T06:49:37.521Z,12.21
2022-10-11T06:52:39.865Z,12.21
2022-10-11T06:55:42.121Z,12.09
2022-10-11T06:58:44.367Z,12.14
2022-10-11T07:01:46.537Z,12.17
2022-10-11T07:04:48.737Z,12.40
2022-10-11T07:07:50.954Z,12.52
2022-10-11T07:10:53.129Z,12.72
2022-10-11T07:13:58.072Z,12.58
2022-10-11T07:17:00.248Z,12.49
2022-10-11T07:20:02.408Z,12.57
2022-10-11T07:23:04.582Z,12.57
2022-10-11T07:26:08.071Z,12.79
2022-10-11T07:29:11.546Z,13.18
2022-10-11T07:32:13.735Z,13.10
2022-10-11T07:35:15.921Z,13.38
2022-10-11T07:38:18.029Z,13.77
2022-10-11T07:41:20.728Z,13.90
2022-10-11T07:44:22.928Z,13.92
2022-10-11T07:47:25.125Z,14.11
2022-10-11T07:50:27.337Z,14.10
2022-10-11T07:53:29.739Z,13.93
2022-10-11T07:56:31.973Z,14.20
2022-10-11T07:59:34.131Z,13.98
2022-10-11T08:02:36.335Z,13.98
2022-10-11T08:05:39.125Z,13.97
2022-10-11T08:08:41.289Z,14.10
2022-10-11T08:11:43.450Z,14.15
2022-10-11T08:14:45.634Z,14.19
2022-10-11T08:17:47.847Z,14.44
2022-10-11T08:20:49.994Z,14.61
2022-10-11T08:23:52.360Z,14.64
2022-10-11T08:26:55.678Z,14.83
2022-10-11T08:29:57.872Z,14.91
2022-10-11T08:33:02.179Z,14.90
2022-10-11T08:36:08.921Z,15.00
2022-10-11T08:39:11.807Z,15.35
2022-10-11T08:42:13.959Z,15.86
2022-10-11T08:45:30.435Z,15.81
2022-10-11T08:48:37.472Z,16.22
2022-10-11T08:51:48.597Z,16.60
2022-10-11T08:54:55.602Z,16.84
2022-10-11T08:57:58.993Z,16.40
2022-10-11T09:01:01.770Z,16.28
2022-10-11T09:04:06.100Z,16.89
2022-10-11T09:07:30.058Z,16.52
2022-10-11T09:10:53.995Z,16.71
2022-10-11T09:13:58.856Z,17.08
2022-10-11T09:17:23.335Z,16.75
2022-10-11T09:20:37.271Z,16.53
2022-10-11T09:23:42.333Z,16.46
2022-10-11T09:26:57.453Z,16.63
2022-10-11T09:30:06.935Z,16.83
2022-10-11T09:33:11.972Z,16.51
2022-10-11T09:36:39.791Z,16.74
2022-10-11T09:39:54.491Z,16.66
2022-10-11T09:42:56.641Z,16.62
2022-10-11T09:45:58.874Z,17.04
2022-10-11T09:49:03.694Z,17.03
2022-10-11T09:52:11.150Z,17.37
2022-10-11T09:55:50.385Z,17.52
2022-10-11T09:59:28.365Z,17.31
2022-10-11T10:02:39.810Z,17.89
2022-10-11T10:05:41.955Z,18.24
2022-10-11T10:08:47.128Z,18.36
2022-10-11T10:11:49.369Z,18.19
2022-10-11T10:14:56.301Z,17.69
2022-10-11T10:17:59.095Z,18.01
2022-10-11T10:21:02.109Z,18.14
2022-10-11T10:24:19.818Z,17.91
2022-10-11T10:27:24.492Z,17.95
2022-10-11T10:30:30.728Z,18.60
2022-10-11T10:33:35.419Z,19.04
2022-10-11T10:36:40.132Z,18.84
2022-10-11T10:39:46.674Z,19.26
2022-10-11T10:42:50.098Z,19.42
2022-10-11T10:46:05.066Z,19.04
2022-10-11T10:53:00.527Z,19.45
2022-10-11T10:56:06.686Z,19.42
2022-10-11T10:59:35.405Z,19.39
2022-10-11T11:02:46.754Z,18.87
2022-10-11T11:06:02.341Z,18.99
2022-10-11T11:09:29.533Z,18.73
2022-10-11T11:12:41.107Z,18.95
2022-10-11T11:15:51.281Z,19.28
2022-10-11T11:19:08.687Z,19.43
2022-10-11T11:22:44.630Z,19.33
2022-10-11T11:25:46.724Z,19.33
2022-10-11T11:28:57.881Z,19.03
2022-10-11T11:31:59.851Z,18.28
2022-10-11T11:35:26.667Z,18.16
2022-10-11T11:38:38.041Z,18.09
2022-10-11T11:41:46.521Z,18.14
2022-10-11T11:44:51.235Z,18.41
2022-10-11T11:48:06.874Z,18.27
2022-10-11T11:51:21.984Z,18.39
2022-10-11T11:54:46.864Z,18.44
2022-10-11T11:58:07.297Z,18.52
2022-10-11T12:01:42.418Z,18.30
2022-10-11T12:04:45.891Z,18.18
2022-10-11T12:08:06.074Z,18.45
2022-10-11T12:11:22.664Z,18.96
2022-10-11T12:14:33.663Z,18.95
2022-10-11T12:18:05.253Z,19.14
2022-10-11T12:21:22.667Z,19.12
2022-10-11T12:24:24.877Z,19.24
2022-10-11T12:27:58.660Z,19.04
2022-10-11T12:31:16.295Z,19.13
2022-10-11T12:37:51.591Z,18.81
2022-10-11T12:41:17.066Z,18.48
2022-10-11T12:44:19.179Z,18.53
2022-10-11T12:47:35.500Z,18.41
2022-10-11T12:50:37.614Z,18.58
2022-10-11T12:54:26.649Z,18.34
2022-10-11T12:57:48.371Z,18.41
2022-10-11T13:00:56.384Z,18.39
2022-10-11T13:04:07.438Z,18.53
2022-10-11T13:07:15.999Z,19.02
2022-10-11T13:10:43.567Z,18.59
2022-10-11T13:13:50.933Z,18.26
2022-10-11T13:17:00.588Z,18.28
2022-10-11T13:20:15.692Z,18.12
2022-10-11T13:23:27.091Z,18.04
2022-10-11T13:26:30.866Z,18.07
2022-10-11T13:29:39.475Z,18.09
2022-10-11T13:32:42.531Z,18.01
2022-10-11T13:35:44.711Z,18.43
2022-10-11T13:38:55.685Z,18.36
2022-10-11T13:41:58.517Z,18.30
2022-10-11T13:45:00.900Z,18.49
2022-10-11T13:48:03.263Z,18.59
2022-10-11T13:51:07.244Z,18.67
2022-10-11T13:54:13.572Z,18.67
2022-10-11T13:57:16.144Z,18.70
2022-10-11T14:00:25.034Z,18.71
2022-10-11T14:03:37.838Z,18.65
2022-10-11T14:06:56.550Z,18.52
2022-10-11T14:09:58.822Z,18.50
2022-10-11T14:13:07.218Z,18.41
2022-10-11T14:16:11.969Z,18.39
2022-10-11T14:19:17.568Z,18.42
2022-10-11T14:22:19.780Z,18.48
2022-10-11T14:25:22.070Z,18.43
2022-10-11T14:28:24.290Z,18.37
2022-10-11T14:31:26.773Z,18.41
2022-10-11T14:34:29.378Z,18.47
2022-10-11T14:37:31.926Z,18.37
2022-10-11T14:40:34.350Z,18.38
2022-10-11T14:43:36.493Z,18.28
2022-10-11T14:46:39.291Z,18.17
2022-10-11T14:49:41.578Z,18.09
2022-10-11T14:52:43.734Z,18.09
2022-10-11T14:55:45.986Z,18.25
2022-10-11T14:58:48.166Z,18.11
2022-10-11T15:01:54.220Z,18.00
2022-10-11T15:04:56.494Z,18.08
2022-10-11T15:07:58.930Z,18.05
2022-10-11T15:11:01.194Z,17.85
2022-10-11T15:14:03.869Z,17.75
2022-10-11T15:17:06.043Z,17.73
2022-10-11T15:20:17.571Z,17.66
2022-10-11T15:23:19.766Z,17.57
2022-10-11T15:26:27.759Z,17.45
2022-10-11T15:29:30.028Z,17.32
2022-10-11T15:32:32.179Z,17.12
2022-10-11T15:35:34.343Z,17.09
2022-10-11T15:38:36.535Z,17.04
2022-10-11T15:41:38.734Z,16.96
2022-10-11T15:44:40.849Z,16.87
2022-10-11T15:47:43.231Z,16.47
2022-10-11T15:50:45.966Z,16.44
2022-10-11T15:53:48.149Z,16.35
2022-10-11T15:56:50.401Z,16.32
2022-10-11T15:59:52.578Z,16.31
2022-10-11T16:02:55.606Z,16.15
2022-10-11T16:06:03.855Z,16.20
2022-10-11T16:09:07.307Z,15.86
2022-10-11T16:12:09.497Z,15.71
2022-10-11T16:15:12.164Z,15.53
2022-10-11T16:18:16.607Z,15.08
2022-10-11T16:21:20.463Z,14.91
2022-10-11T16:24:22.621Z,14.93
2022-10-11T16:27:24.908Z,14.83
2022-10-11T16:30:27.079Z,14.75
2022-10-11T16:33:31.758Z,14.63
2022-10-11T16:36:40.121Z,14.58
2022-10-11T16:39:42.564Z,14.39
2022-10-11T16:42:45.274Z,14.26
2022-10-11T16:45:47.463Z,14.19
2022-10-11T16:48:49.918Z,14.09
2022-10-11T16:51:54.223Z,14.00
2022-10-11T16:54:56.434Z,13.92
2022-10-11T16:57:58.586Z,13.92
2022-10-11T17:01:00.926Z,13.84
2022-10-11T17:04:03.685Z,13.89
2022-10-11T17:07:12.212Z,13.98
2022-10-11T17:10:14.539Z,13.91
2022-10-11T17:13:16.726Z,13.84
2022-10-11T17:16:19.746Z,13.85
2022-10-11T17:19:21.915Z,13.87
2022-10-11T17:22:24.394Z,13.84
2022-10-11T17:25:26.686Z,13.84
2022-10-11T17:28:31.889Z,13.84
2022-10-11T17:31:36.524Z,13.82
2022-10-11T17:34:38.714Z,13.87
2022-10-11T17:37:40.944Z,13.89
2022-10-11T17:40:43.109Z,13.92
2022-10-11T17:43:45.386Z,14.02
2022-10-11T17:46:47.725Z,14.03
2022-10-11T17:49:50.148Z,14.06
2022-10-11T17:52:53.861Z,14.08
2022-10-11T17:55:58.863Z,13.99
2022-10-11T17:59:01.100Z,14.02
2022-10-11T18:02:03.883Z,14.02
2022-10-11T18:05:07.627Z,14.01
2022-10-11T18:08:10.605Z,14.02
2022-10-11T18:11:15.865Z,13.95
2022-10-11T18:14:18.223Z,13.91
2022-10-11T18:17:23.189Z,13.94
2022-10-11T18:20:26.259Z,13.98
2022-10-11T18:23:28.510Z,13.88
2022-10-11T18:26:31.226Z,13.89
2022-10-11T18:29:33.510Z,13.86
2022-10-11T18:32:35.739Z,13.86
2022-10-11T18:35:38.221Z,13.77
2022-10-11T18:38:46.112Z,13.62
2022-10-11T18:41:48.750Z,13.59
2022-10-11T18:44:50.936Z,13.42
2022-10-11T18:47:53.161Z,13.22
2022-10-11T18:51:03.098Z,13.28
2022-10-11T18:54:07.427Z,13.29
2022-10-11T18:57:09.643Z,13.28
2022-10-11T19:03:24.832Z,12.99
2022-10-11T19:06:29.892Z,12.86
2022-10-11T19:09:32.348Z,12.99
2022-10-11T19:12:34.718Z,12.93
2022-10-11T19:15:36.952Z,12.89
2022-10-11T19:18:44.103Z,12.76
2022-10-11T19:21:48.706Z,12.55
2022-10-11T19:24:50.898Z,12.37
2022-10-11T19:27:53.067Z,12.53
2022-10-11T19:31:04.821Z,12.50
2022-10-11T19:34:07.482Z,12.55
2022-10-11T19:37:13.246Z,12.30
2022-10-11T19:40:15.522Z,12.23
2022-10-11T19:43:17.854Z,12.13
2022-10-11T19:46:44.323Z,12.11
2022-10-11T19:49:43.459Z,12.17
2022-10-11T19:52:45.660Z,12.16
2022-10-11T19:55:47.916Z,12.23
2022-10-11T19:58:50.390Z,12.34
2022-10-11T20:01:53.419Z,12.44
2022-10-11T20:04:55.809Z,12.49
2022-10-11T20:07:58.005Z,12.44
2022-10-11T20:11:03.608Z,12.47
2022-10-11T20:14:05.913Z,12.49
2022-10-11T20:17:08.130Z,12.61
2022-10-11T20:20:10.493Z,12.67
2022-10-11T20:23:16.151Z,12.68
2022-10-11T20:26:22.720Z,12.67
2022-10-11T20:29:25.438Z,12.62
2022-10-11T20:32:28.461Z,12.65
2022-10-11T20:35:30.608Z,12.69
2022-10-11T20:38:34.405Z,12.51
2022-10-11T20:41:39.999Z,12.40
2022-10-11T20:44:43.720Z,12.49
2022-10-11T20:47:45.884Z,12.49
2022-10-11T20:50:48.101Z,12.23
2022-10-11T20:53:50.634Z,11.90
2022-10-11T20:56:52.812Z,11.93
2022-10-11T20:59:54.983Z,11.87
2022-10-11T21:02:57.108Z,11.82
2022-10-11T21:06:00.074Z,11.81
2022-10-11T21:09:02.668Z,11.70
2022-10-11T21:12:05.230Z,11.77
2022-10-11T21:15:07.915Z,11.73
2022-10-11T21:18:11.504Z,11.69
2022-10-11T21:21:14.784Z,11.73
2022-10-11T21:24:16.947Z,11.85
2022-10-11T21:27:19.099Z,11.81
2022-10-11T21:30:21.236Z,11.67
2022-10-11T21:33:23.433Z,11.61
2022-10-11T21:36:25.919Z,11.58
2022-10-11T21:39:28.072Z,11.55
2022-10-11T21:42:30.226Z,11.47
2022-10-11T21:45:36.970Z,11.48
2022-10-11T21:48:39.307Z,11.57
2022-10-11T21:51:41.543Z,11.63
2022-10-11T21:54:43.711Z,11.54
2022-10-11T21:57:45.898Z,11.48
2022-10-11T22:00:48.115Z,11.53
2022-10-11T22:03:50.459Z,11.55
2022-10-11T22:06:52.670Z,11.56
2022-10-11T22:09:54.890Z,11.49
2022-10-11T22:12:57.127Z,11.48
2022-10-11T22:16:07.501Z,11.41
2022-10-11T22:19:09.648Z,11.36
2022-10-11T22:22:11.965Z,11.34
2022-10-11T22:25:14.166Z,11.36
2022-10-11T22:28:16.419Z,11.36
2022-10-11T22:31:19.320Z,11.45
2022-10-11T22:34:21.565Z,11.54
2022-10-11T22:37:23.738Z,11.57
2022-10-11T22:40:25.959Z,11.54
2022-10-11T22:43:28.221Z,11.59
2022-10-11T22:46:30.403Z,11.67
2022-10-11T22:49:32.541Z,11.51
2022-10-11T22:52:34.744Z,11.49
2022-10-11T22:55:36.901Z,11.55
2022-10-11T22:58:39.040Z,11.46
2022-10-11T23:01:41.308Z,11.38
2022-10-11T23:04:43.475Z,11.39
2022-10-11T23:07:49.051Z,11.38
2022-10-11T23:10:51.331Z,11.28
2022-10-11T23:13:53.520Z,11.17
2022-10-11T23:16:55.670Z,11.25
2022-10-11T23:19:57.861Z,11.21
2022-10-11T23:23:00.037Z,11.05
2022-10-11T23:26:03.897Z,11.05
2022-10-11T23:29:06.292Z,10.97
2022-10-11T23:32:09.113Z,11.05
2022-10-11T23:35:11.322Z,10.90
2022-10-11T23:38:13.496Z,10.96
2022-10-11T23:41:15.660Z,10.88
2022-10-11T23:44:17.831Z,10.74
2022-10-11T23:47:20.259Z,10.80
2022-10-11T23:50:22.452Z,10.83
2022-10-11T23:53:24.641Z,10.89
2022-10-11T23:56:26.858Z,10.81
2022-10-11T23:59:29.038Z,10.82
